createdAt,value
2023-03-06T00:01:31.902Z,28.90
2023-03-06T00:04:00.627Z,25.40
2023-03-06T00:06:29.419Z,30.80
2023-03-06T00:08:58.100Z,29.10
2023-03-06T00:11:26.686Z,27.70
2023-03-06T00:13:55.291Z,25.00
2023-03-06T00:16:25.242Z,26.70
2023-03-06T00:18:54.097Z,26.90
2023-03-06T00:21:22.746Z,24.60
2023-03-06T00:23:51.655Z,28.90
2023-03-06T00:26:20.336Z,24.80
2023-03-06T00:28:49.575Z,27.90
2023-03-06T00:31:18.524Z,23.80
2023-03-06T00:33:47.273Z,26.30
2023-03-06T00:36:15.998Z,25.20
2023-03-06T00:38:44.667Z,26.60
2023-03-06T00:41:13.960Z,25.40
2023-03-06T00:43:42.656Z,25.70
2023-03-06T00:46:11.427Z,24.30
2023-03-06T00:48:40.088Z,25.40
2023-03-06T00:51:08.942Z,27.40
2023-03-06T00:53:37.535Z,24.80
2023-03-06T00:56:09.399Z,29.00
2023-03-06T00:58:39.188Z,27.30
2023-03-06T01:01:08.530Z,25.20
2023-03-06T01:03:37.297Z,26.90
2023-03-06T01:06:06.795Z,25.50
2023-03-06T01:08:35.625Z,26.80
2023-03-06T01:11:04.440Z,21.20
2023-03-06T01:13:33.172Z,27.70
2023-03-06T01:16:14.171Z,23.70
2023-03-06T01:18:43.542Z,28.10
2023-03-06T01:21:12.845Z,27.80
2023-03-06T01:23:42.120Z,22.70
2023-03-06T01:26:11.135Z,24.10
2023-03-06T01:28:41.020Z,24.80
2023-03-06T01:31:10.935Z,29.20
2023-03-06T01:33:39.795Z,24.40
2023-03-06T01:36:11.880Z,22.90
2023-03-06T01:38:40.601Z,21.00
2023-03-06T01:41:11.328Z,22.00
2023-03-06T01:43:42.854Z,23.30
2023-03-06T01:46:33.678Z,24.40
2023-03-06T01:49:02.784Z,23.90
2023-03-06T01:51:36.678Z,25.60
2023-03-06T01:54:09.569Z,22.90
2023-03-06T01:56:43.056Z,20.60
2023-03-06T01:59:12.218Z,27.10
2023-03-06T02:01:42.122Z,25.60
2023-03-06T02:04:12.354Z,23.20
2023-03-06T02:06:45.565Z,24.50
2023-03-06T02:09:14.923Z,25.90
2023-03-06T02:11:44.598Z,25.70
2023-03-06T02:14:16.851Z,22.30
2023-03-06T02:16:45.640Z,22.30
2023-03-06T02:19:53.775Z,20.80
2023-03-06T02:22:25.125Z,21.00
2023-03-06T02:25:10.058Z,20.00
2023-03-06T02:27:38.965Z,19.80
2023-03-06T02:30:09.329Z,18.60
2023-03-06T02:32:38.303Z,20.20
2023-03-06T02:35:07.965Z,19.90
2023-03-06T02:37:36.781Z,20.60
2023-03-06T02:40:12.694Z,23.10
2023-03-06T02:42:50.542Z,21.40
2023-03-06T02:45:26.483Z,22.00
2023-03-06T02:47:55.048Z,17.50
2023-03-06T02:50:23.693Z,24.40
2023-03-06T02:52:52.693Z,19.30
2023-03-06T02:55:21.131Z,19.10
2023-03-06T02:57:49.731Z,18.90
2023-03-06T03:00:19.612Z,22.00
2023-03-06T03:02:48.454Z,20.80
2023-03-06T03:05:17.445Z,19.00
2023-03-06T03:07:46.159Z,20.70
2023-03-06T03:10:15.342Z,25.00
2023-03-06T03:12:44.476Z,19.70
2023-03-06T03:15:14.849Z,19.50
2023-03-06T03:17:43.385Z,20.60
2023-03-06T03:20:15.728Z,22.20
2023-03-06T03:22:52.686Z,22.10
2023-03-06T03:25:24.196Z,20.60
2023-03-06T03:27:53.944Z,23.40
2023-03-06T03:34:22.085Z,23.10
2023-03-06T03:36:52.053Z,19.20
2023-03-06T03:39:21.008Z,22.70
2023-03-06T03:41:51.095Z,22.70
2023-03-06T03:44:19.846Z,22.50
2023-03-06T03:46:49.487Z,17.60
2023-03-06T03:49:18.546Z,22.80
2023-03-06T03:51:47.216Z,24.20
2023-03-06T03:54:16.924Z,24.70
2023-03-06T03:56:45.553Z,19.70
2023-03-06T03:59:15.448Z,23.80
2023-03-06T04:01:46.227Z,21.90
2023-03-06T04:04:14.876Z,21.20
2023-03-06T04:06:43.525Z,19.90
2023-03-06T04:09:14.512Z,20.30
2023-03-06T04:11:43.348Z,24.00
2023-03-06T04:14:12.102Z,22.20
2023-03-06T04:16:41.411Z,21.10
2023-03-06T04:19:11.988Z,20.20
2023-03-06T04:21:40.985Z,24.40
2023-03-06T04:24:10.004Z,19.10
2023-03-06T04:26:38.710Z,21.10
2023-03-06T04:29:21.602Z,19.60
2023-03-06T04:31:50.291Z,22.10
2023-03-06T04:34:19.601Z,21.00
2023-03-06T04:36:48.594Z,22.80
2023-03-06T04:39:17.407Z,22.10
2023-03-06T04:41:46.113Z,22.60
2023-03-06T04:44:14.997Z,22.50
2023-03-06T04:46:44.329Z,20.80
2023-03-06T04:49:13.331Z,21.00
2023-03-06T04:51:42.435Z,20.30
2023-03-06T04:54:11.085Z,21.10
2023-03-06T04:56:39.881Z,19.00
2023-03-06T04:59:09.053Z,22.00
2023-03-06T05:01:38.289Z,19.60
2023-03-06T05:04:07.021Z,17.50
2023-03-06T05:06:36.104Z,19.40
2023-03-06T05:09:05.319Z,21.50
2023-03-06T05:11:34.038Z,22.40
2023-03-06T05:14:02.608Z,19.70
2023-03-06T05:16:31.309Z,22.50
2023-03-06T05:19:00.568Z,20.50
2023-03-06T05:21:29.234Z,19.80
2023-03-06T05:23:58.097Z,22.90
2023-03-06T05:26:26.874Z,17.70
2023-03-06T05:28:56.073Z,20.60
2023-03-06T05:31:46.379Z,17.60
2023-03-06T05:34:16.369Z,21.80
2023-03-06T05:36:45.100Z,25.80
2023-03-06T05:39:14.034Z,24.80
2023-03-06T05:41:42.571Z,17.90
2023-03-06T05:44:11.738Z,18.70
2023-03-06T05:46:40.310Z,20.80
2023-03-06T05:49:09.173Z,16.80
2023-03-06T05:51:38.311Z,17.00
2023-03-06T05:54:06.973Z,16.50
2023-03-06T05:56:36.143Z,16.80
2023-03-06T05:59:04.758Z,17.40
2023-03-06T06:01:33.437Z,18.70
2023-03-06T06:04:02.412Z,16.40
2023-03-06T06:06:31.634Z,15.90
2023-03-06T06:09:00.392Z,16.50
2023-03-06T06:11:29.028Z,17.80
2023-03-06T06:13:58.176Z,15.60
2023-03-06T06:16:26.848Z,14.90
2023-03-06T06:18:55.377Z,15.00
2023-03-06T06:21:24.062Z,16.60
2023-03-06T06:23:52.773Z,16.40
2023-03-06T06:26:21.960Z,16.60
2023-03-06T06:28:50.623Z,17.80
2023-03-06T06:31:20.582Z,15.90
2023-03-06T06:33:49.870Z,16.00
2023-03-06T06:36:21.211Z,16.40
2023-03-06T06:38:50.599Z,16.10
2023-03-06T06:41:51.019Z,18.10
2023-03-06T06:44:11.695Z,15.00
2023-03-06T06:49:31.675Z,15.00
2023-03-06T06:52:00.648Z,16.10
2023-03-06T06:54:29.929Z,14.20
2023-03-06T06:56:58.592Z,10.50
2023-03-06T06:59:27.934Z,12.80
2023-03-06T07:01:56.594Z,12.20
2023-03-06T07:04:25.170Z,13.00
2023-03-06T07:06:56.690Z,13.50
2023-03-06T07:09:25.720Z,13.70
2023-03-06T07:11:54.409Z,11.80
2023-03-06T07:14:23.042Z,12.90
2023-03-06T07:16:52.358Z,13.60
2023-03-06T07:19:21.561Z,9.30
2023-03-06T07:21:50.804Z,11.80
2023-03-06T07:24:19.410Z,11.00
2023-03-06T07:26:48.754Z,11.80
2023-03-06T07:29:17.834Z,10.80
2023-03-06T07:31:48.658Z,11.50
2023-03-06T07:34:17.350Z,10.70
2023-03-06T07:36:46.601Z,10.30
2023-03-06T07:39:15.263Z,9.70
2023-03-06T07:41:43.812Z,10.60
2023-03-06T07:44:13.006Z,7.30
2023-03-06T07:46:42.208Z,10.80
2023-03-06T07:49:12.017Z,6.90
2023-03-06T07:51:41.240Z,8.20
2023-03-06T07:54:10.241Z,4.00
2023-03-06T07:56:38.958Z,4.00
2023-03-06T07:59:08.299Z,4.90
2023-03-06T08:01:39.678Z,4.60
2023-03-06T08:04:08.513Z,4.30
2023-03-06T08:06:37.115Z,7.00
2023-03-06T08:09:05.708Z,4.20
2023-03-06T08:11:34.472Z,4.90
2023-03-06T08:14:03.081Z,5.00
2023-03-06T08:16:31.906Z,5.70
2023-03-06T08:19:00.492Z,6.60
2023-03-06T08:21:29.497Z,5.50
2023-03-06T08:23:58.581Z,5.70
2023-03-06T08:26:31.411Z,4.30
2023-03-06T08:29:03.593Z,4.80
2023-03-06T08:31:41.049Z,4.70
2023-03-06T08:34:19.657Z,3.60
2023-03-06T08:36:48.166Z,4.10
2023-03-06T08:39:17.232Z,4.10
2023-03-06T08:41:45.942Z,4.00
2023-03-06T08:44:14.665Z,3.00
2023-03-06T08:46:43.276Z,2.70
2023-03-06T08:49:13.733Z,3.60
2023-03-06T08:51:43.344Z,6.10
2023-03-06T08:54:13.964Z,4.20
2023-03-06T08:56:43.031Z,4.00
2023-03-06T08:59:13.707Z,3.00
2023-03-06T09:01:42.493Z,1.90
2023-03-06T09:04:12.703Z,4.30
2023-03-06T09:06:43.822Z,2.80
2023-03-06T09:09:13.254Z,5.30
2023-03-06T09:11:42.325Z,6.50
2023-03-06T09:14:10.964Z,6.00
2023-03-06T09:16:39.681Z,7.20
2023-03-06T09:19:08.303Z,7.40
2023-03-06T09:21:37.483Z,10.00
2023-03-06T09:24:06.247Z,9.00
2023-03-06T09:26:45.471Z,9.10
2023-03-06T09:29:16.656Z,9.40
2023-03-06T09:31:46.191Z,8.70
2023-03-06T09:34:14.971Z,8.70
2023-03-06T09:36:55.856Z,9.90
2023-03-06T09:39:26.638Z,7.10
2023-03-06T09:41:57.822Z,8.50
2023-03-06T09:44:32.799Z,8.20
2023-03-06T09:47:28.917Z,7.70
2023-03-06T09:50:17.096Z,7.90
2023-03-06T09:52:59.071Z,5.40
2023-03-06T09:55:36.242Z,7.00
2023-03-06T09:58:21.016Z,5.90
2023-03-06T10:01:05.304Z,6.20
2023-03-06T10:03:47.387Z,6.90
2023-03-06T10:06:26.986Z,6.60
2023-03-06T10:09:07.250Z,7.80
2023-03-06T10:12:04.122Z,10.30
2023-03-06T10:14:40.478Z,8.50
2023-03-06T10:17:17.284Z,7.10
2023-03-06T10:19:48.042Z,6.00
2023-03-06T10:23:00.043Z,5.90
2023-03-06T10:25:58.178Z,6.20
2023-03-06T10:28:37.192Z,4.80
2023-03-06T10:31:28.590Z,6.00
2023-03-06T10:34:11.551Z,9.50
2023-03-06T10:36:40.155Z,9.00
2023-03-06T10:39:35.696Z,15.40
2023-03-06T10:42:04.182Z,11.80
2023-03-06T10:44:32.709Z,8.50
2023-03-06T10:47:40.599Z,6.40
2023-03-06T10:50:26.876Z,6.20
2023-03-06T10:53:05.884Z,7.30
2023-03-06T10:55:37.956Z,8.20
2023-03-06T10:58:24.730Z,7.60
2023-03-06T11:01:04.298Z,6.40
2023-03-06T11:03:35.011Z,7.30
2023-03-06T11:06:12.563Z,9.30
2023-03-06T11:08:44.337Z,7.60
2023-03-06T11:11:36.731Z,7.40
2023-03-06T11:14:16.455Z,7.20
2023-03-06T11:16:54.069Z,8.00
2023-03-06T11:19:30.155Z,12.40
2023-03-06T11:22:05.395Z,9.10
2023-03-06T11:24:43.865Z,8.10
2023-03-06T11:27:34.900Z,7.30
2023-03-06T11:30:11.566Z,8.60
2023-03-06T11:32:58.067Z,11.10
2023-03-06T11:35:45.580Z,9.60
2023-03-06T11:38:25.662Z,10.50
2023-03-06T11:41:02.705Z,11.60
2023-03-06T11:43:53.312Z,10.50
2023-03-06T11:46:29.242Z,11.60
2023-03-06T11:49:26.373Z,12.40
2023-03-06T11:52:27.528Z,11.80
2023-03-06T11:54:58.404Z,15.70
2023-03-06T11:57:48.655Z,13.10
2023-03-06T12:00:20.188Z,12.70
2023-03-06T12:03:23.737Z,16.40
2023-03-06T12:06:11.604Z,14.40
2023-03-06T12:08:48.897Z,15.40
2023-03-06T12:11:24.797Z,14.40
2023-03-06T12:14:08.647Z,14.80
2023-03-06T12:17:04.396Z,17.50
2023-03-06T12:19:54.329Z,15.80
2023-03-06T12:23:14.415Z,17.30
2023-03-06T12:25:53.731Z,15.90
2023-03-06T12:28:42.207Z,16.20
2023-03-06T12:31:14.690Z,16.60
2023-03-06T12:34:14.656Z,16.10
2023-03-06T12:36:58.252Z,16.20
2023-03-06T12:39:40.264Z,18.20
2023-03-06T12:42:36.096Z,19.00
2023-03-06T12:45:34.716Z,18.50
2023-03-06T12:48:11.457Z,18.10
2023-03-06T12:50:44.837Z,20.30
2023-03-06T12:53:22.100Z,20.50
2023-03-06T12:55:51.924Z,19.10
2023-03-06T12:58:48.390Z,19.70
2023-03-06T13:01:39.101Z,17.80
2023-03-06T13:04:35.195Z,15.60
2023-03-06T13:07:30.120Z,17.80
2023-03-06T13:10:10.287Z,14.90
2023-03-06T13:12:43.421Z,16.30
2023-03-06T13:16:04.608Z,13.20
2023-03-06T13:18:53.433Z,12.50
2023-03-06T13:21:47.863Z,10.60
2023-03-06T13:24:44.262Z,13.30
2023-03-06T13:27:33.120Z,10.30
2023-03-06T13:30:21.473Z,7.70
2023-03-06T13:32:53.187Z,9.60
2023-03-06T13:35:55.745Z,9.00
2023-03-06T13:38:30.207Z,10.40
2023-03-06T13:41:23.832Z,7.60
2023-03-06T13:44:00.861Z,7.20
2023-03-06T13:46:35.693Z,7.90
2023-03-06T13:49:13.426Z,6.20
2023-03-06T13:52:06.468Z,6.90
2023-03-06T13:54:58.397Z,7.90
2023-03-06T13:57:27.136Z,7.10
2023-03-06T14:00:27.347Z,5.40
2023-03-06T14:03:11.248Z,6.00
2023-03-06T14:05:46.101Z,8.50
2023-03-06T14:08:24.217Z,5.50
2023-03-06T14:11:18.249Z,6.10
2023-03-06T14:13:52.883Z,7.30
2023-03-06T14:16:25.060Z,6.60
2023-03-06T14:18:58.034Z,6.60
2023-03-06T14:21:37.422Z,6.50
2023-03-06T14:24:06.638Z,5.30
2023-03-06T14:26:46.469Z,5.70
2023-03-06T14:29:25.252Z,6.20
2023-03-06T14:31:56.664Z,6.30
2023-03-06T14:34:37.163Z,5.40
2023-03-06T14:37:17.684Z,6.00
2023-03-06T14:39:47.187Z,5.70
2023-03-06T14:42:29.997Z,6.30
2023-03-06T14:45:20.988Z,6.40
2023-03-06T14:47:53.505Z,5.10
2023-03-06T14:50:27.288Z,4.70
2023-03-06T14:52:57.753Z,5.90
2023-03-06T14:55:29.046Z,7.20
2023-03-06T14:58:16.353Z,6.70
2023-03-06T15:00:50.038Z,5.10
2023-03-06T15:03:28.142Z,6.10
2023-03-06T15:05:57.511Z,4.90
2023-03-06T15:08:32.602Z,6.10
2023-03-06T15:11:03.910Z,5.80
2023-03-06T15:13:34.525Z,7.40
2023-03-06T15:16:07.509Z,6.70
2023-03-06T15:19:04.928Z,5.10
2023-03-06T15:21:39.098Z,8.60
2023-03-06T15:24:26.228Z,7.50
2023-03-06T15:26:56.446Z,6.10
2023-03-06T15:29:25.278Z,7.90
2023-03-06T15:32:14.150Z,6.80
2023-03-06T15:34:43.505Z,7.10
2023-03-06T15:37:29.206Z,6.60
2023-03-06T15:40:09.798Z,8.80
2023-03-06T15:42:38.927Z,7.30
2023-03-06T15:45:22.723Z,7.70
2023-03-06T15:47:53.509Z,9.20
2023-03-06T15:50:25.980Z,9.00
2023-03-06T15:52:55.150Z,8.70
2023-03-06T15:55:26.665Z,9.00
2023-03-06T15:58:00.109Z,9.20
2023-03-06T16:00:35.039Z,4.60
2023-03-06T16:03:05.075Z,8.70
2023-03-06T16:05:36.108Z,6.80
2023-03-06T16:08:06.248Z,8.70
2023-03-06T16:10:39.856Z,7.60
2023-03-06T16:13:14.325Z,8.70
2023-03-06T16:15:49.605Z,7.10
2023-03-06T16:18:20.043Z,8.50
2023-03-06T16:20:50.514Z,7.20
2023-03-06T16:23:19.921Z,7.40
2023-03-06T16:25:49.916Z,6.60
2023-03-06T16:28:18.771Z,6.00
2023-03-06T16:30:48.269Z,8.40
2023-03-06T16:33:17.373Z,8.40
2023-03-06T16:35:47.594Z,10.80
2023-03-06T16:38:17.531Z,11.30
2023-03-06T16:40:47.325Z,16.70
2023-03-06T16:43:18.164Z,12.20
2023-03-06T16:45:47.709Z,12.30
2023-03-06T16:48:17.485Z,12.10
2023-03-06T16:50:47.101Z,14.20
2023-03-06T16:53:16.530Z,13.80
2023-03-06T16:55:46.692Z,11.20
2023-03-06T16:58:17.099Z,14.30
2023-03-06T17:00:46.030Z,12.50
2023-03-06T17:03:17.092Z,13.60
2023-03-06T17:05:47.426Z,16.30
2023-03-06T17:08:16.185Z,14.70
2023-03-06T17:10:46.328Z,13.10
2023-03-06T17:13:16.469Z,18.50
2023-03-06T17:15:59.731Z,14.90
2023-03-06T17:18:30.133Z,15.20
2023-03-06T17:21:00.494Z,15.10
2023-03-06T17:23:30.048Z,12.80
2023-03-06T17:26:18.558Z,15.60
2023-03-06T17:28:49.783Z,11.40
2023-03-06T17:31:22.384Z,10.80
2023-03-06T17:33:59.431Z,11.10
2023-03-06T17:36:30.684Z,10.80
2023-03-06T17:39:02.790Z,9.20
2023-03-06T17:41:34.572Z,9.20
2023-03-06T17:44:07.074Z,12.20
2023-03-06T17:46:39.257Z,11.80
2023-03-06T17:49:09.480Z,12.60
2023-03-06T17:51:39.585Z,11.70
2023-03-06T17:54:13.077Z,11.70
2023-03-06T17:56:43.018Z,12.30
2023-03-06T17:59:13.139Z,13.50
2023-03-06T18:01:43.837Z,17.40
2023-03-06T18:04:14.582Z,24.00
2023-03-06T18:06:44.119Z,22.00
2023-03-06T18:09:14.839Z,24.80
2023-03-06T18:11:44.626Z,23.60
2023-03-06T18:14:15.093Z,20.50
2023-03-06T18:16:45.144Z,28.70
2023-03-06T18:19:16.591Z,25.00
2023-03-06T18:21:48.318Z,29.50
2023-03-06T18:24:18.366Z,52.30
2023-03-06T18:26:48.485Z,37.00
2023-03-06T18:29:18.395Z,29.00
2023-03-06T18:31:51.472Z,25.00
2023-03-06T18:34:21.941Z,35.80
2023-03-06T18:36:54.039Z,139.00
2023-03-06T18:39:24.240Z,159.60
2023-03-06T18:41:56.448Z,86.30
2023-03-06T18:46:59.720Z,128.90
2023-03-06T18:49:29.635Z,119.00
2023-03-06T18:52:01.066Z,134.50
2023-03-06T18:54:32.157Z,140.70
2023-03-06T18:57:02.969Z,133.90
2023-03-06T18:59:34.150Z,146.20
2023-03-06T19:02:09.673Z,131.50
2023-03-06T19:04:44.204Z,116.50
2023-03-06T19:07:17.286Z,109.40
2023-03-06T19:09:50.081Z,84.30
2023-03-06T19:12:22.988Z,101.20
2023-03-06T19:14:52.895Z,100.80
2023-03-06T19:17:25.103Z,102.90
2023-03-06T19:19:57.233Z,69.70
2023-03-06T19:22:26.929Z,72.60
2023-03-06T19:24:56.478Z,78.80
2023-03-06T19:27:26.331Z,62.50
2023-03-06T19:29:56.865Z,64.30
2023-03-06T19:32:27.392Z,61.20
2023-03-06T19:35:06.194Z,62.10
2023-03-06T19:37:38.237Z,70.70
2023-03-06T19:40:11.213Z,81.10
2023-03-06T19:42:42.897Z,77.00
2023-03-06T19:45:14.155Z,58.60
2023-03-06T19:47:45.567Z,60.90
2023-03-06T19:50:17.543Z,61.40
2023-03-06T19:52:49.548Z,64.60
2023-03-06T19:55:19.704Z,65.10
2023-03-06T19:57:50.509Z,71.10
2023-03-06T20:00:21.798Z,70.60
2023-03-06T20:02:56.121Z,67.40
2023-03-06T20:05:28.104Z,75.30
2023-03-06T20:07:58.670Z,75.40
2023-03-06T20:10:29.549Z,101.80
2023-03-06T20:13:02.624Z,93.00
2023-03-06T20:15:39.392Z,68.60
2023-03-06T20:18:09.911Z,69.90
2023-03-06T20:20:41.050Z,98.40
2023-03-06T20:23:16.561Z,121.20
2023-03-06T20:25:51.471Z,142.20
2023-03-06T20:28:24.067Z,131.60
2023-03-06T20:30:53.915Z,132.00
2023-03-06T20:33:24.015Z,129.90
2023-03-06T20:35:55.805Z,156.20
2023-03-06T20:38:27.624Z,157.80
2023-03-06T20:40:59.295Z,133.80
2023-03-06T20:43:30.627Z,114.90
2023-03-06T20:46:03.801Z,123.50
2023-03-06T20:48:33.696Z,123.60
2023-03-06T20:51:29.670Z,113.90
2023-03-06T20:54:02.419Z,110.90
2023-03-06T20:56:34.082Z,99.40
2023-03-06T20:59:04.188Z,100.00
2023-03-06T21:01:42.421Z,96.00
2023-03-06T21:04:17.092Z,99.40
2023-03-06T21:06:47.618Z,123.00
2023-03-06T21:09:19.345Z,102.30
2023-03-06T21:11:49.206Z,114.90
2023-03-06T21:14:18.015Z,107.70
2023-03-06T21:16:48.569Z,98.60
2023-03-06T21:19:18.129Z,87.90
2023-03-06T21:21:47.241Z,89.30
2023-03-06T21:24:15.992Z,90.70
2023-03-06T21:26:45.784Z,83.20
2023-03-06T21:29:14.592Z,81.60
2023-03-06T21:31:46.822Z,80.20
2023-03-06T21:34:15.690Z,81.50
2023-03-06T21:36:44.638Z,84.50
2023-03-06T21:39:14.369Z,78.20
2023-03-06T21:41:43.203Z,75.00
2023-03-06T21:44:11.834Z,77.40
2023-03-06T21:46:40.504Z,73.80
2023-03-06T21:49:09.161Z,72.90
2023-03-06T21:51:37.913Z,73.60
2023-03-06T21:54:07.524Z,69.80
2023-03-06T21:56:36.413Z,69.00
2023-03-06T21:59:05.050Z,68.60
2023-03-06T22:01:33.774Z,69.50
2023-03-06T22:04:02.894Z,69.10
2023-03-06T22:06:32.214Z,66.20
2023-03-06T22:09:01.519Z,63.50
2023-03-06T22:11:37.382Z,60.10
2023-03-06T22:14:07.141Z,63.20
2023-03-06T22:16:35.802Z,58.90
2023-03-06T22:19:05.611Z,58.60
2023-03-06T22:21:34.214Z,59.00
2023-03-06T22:24:02.925Z,52.00
2023-03-06T22:26:32.060Z,53.40
2023-03-06T22:29:00.761Z,56.30
2023-03-06T22:31:34.557Z,52.30
2023-03-06T22:34:04.494Z,56.60
2023-03-06T22:36:33.168Z,55.10
2023-03-06T22:39:03.606Z,56.60
2023-03-06T22:41:32.336Z,56.10
2023-03-06T22:44:02.524Z,54.20
2023-03-06T22:46:32.784Z,62.70
2023-03-06T22:49:02.575Z,63.90
2023-03-06T22:51:31.248Z,90.80
2023-03-06T22:53:59.995Z,83.20
2023-03-06T22:56:28.814Z,65.60
2023-03-06T22:58:58.212Z,84.90
2023-03-06T23:01:32.611Z,75.70
2023-03-06T23:04:03.626Z,82.40
2023-03-06T23:06:41.208Z,137.10
2023-03-06T23:09:21.861Z,91.70
2023-03-06T23:11:50.716Z,103.40
2023-03-06T23:14:20.472Z,72.50
2023-03-06T23:16:49.832Z,69.90
2023-03-06T23:19:18.628Z,75.60
2023-03-06T23:21:47.337Z,86.90
2023-03-06T23:24:17.346Z,86.40
2023-03-06T23:26:46.081Z,97.70
2023-03-06T23:29:15.759Z,92.30
2023-03-06T23:31:44.548Z,81.50
2023-03-06T23:34:13.270Z,89.20
2023-03-06T23:36:42.096Z,93.40
2023-03-06T23:39:12.580Z,75.50
2023-03-06T23:41:41.434Z,88.00
2023-03-06T23:44:10.932Z,64.10
2023-03-06T23:46:40.261Z,52.40
2023-03-06T23:49:09.099Z,56.50
2023-03-06T23:51:37.704Z,55.00
2023-03-06T23:54:07.340Z,42.90
2023-03-06T23:56:36.208Z,45.80
2023-03-06T23:59:04.995Z,40.20
